EDFY weather

Elz Airport
Limburg an der Lahn, Hesse, Germany

Public forecast

Using degrees Celsius for public forecast. Weather courtesy of forecast.io.

Closest aviation weather report (METAR) to Elz Airport

Closest report is Siegerland Airport, 17.1 nm (31.6 km) N. Retrieved 2020/08/07 12:20 UTC (1 minute ago):

EDGS 071220Z 13006KT CAVOK 29/09 Q1023

Closest aviation forecast (TAF) to Elz Airport

Forecast is more than 12 hours old.

Closest forecast is Siegerland Airport, 17.1 nm (31.6 km) N. Retrieved 2019/12/01 22:03 UTC (8 months ago):

TAF TAF EDGS 302250Z 3022/0103 CNL